Time;durP1;ratioP1;P1;durP2;ratioP2;P2;SDS_P1;SDS_P2;PMS_P1;PMS_P2;Temp;Humidity;BMP_temperature;BMP_pressure;BME280_temperature;BME280_humidity;BME280_pressure;Samples;Min_cycle;Max_cycle;Signal;HPM_P1;HPM_P2
2024/02/09 00:01:53;;;;;;;6.28;4.50;;;;;;;;;;5044724;28;20029;-58
2024/02/09 00:04:19;;;;;;;5.90;3.85;;;;;;;;;;5052707;28;20043;-59
2024/02/09 00:06:44;;;;;;;6.63;4.18;;;;;;;;;;5046287;28;20037;-58
2024/02/09 00:09:12;;;;;;;7.53;4.53;;;;;;;;;;5042954;28;20621;-58
2024/02/09 00:11:38;;;;;;;6.97;4.32;;;;;;;;;;5044381;28;20416;-58
2024/02/09 00:14:04;;;;;;;5.93;4.38;;;;;;;;;;5045640;28;20037;-59
2024/02/09 00:16:31;;;;;;;6.43;4.35;;;;;;;;;;5024798;28;20022;-59
2024/02/09 00:18:56;;;;;;;6.40;4.32;;;;;;;;;;5044188;28;20043;-59
2024/02/09 00:21:22;;;;;;;6.20;4.22;;;;;;;;;;5046371;28;20025;-61
2024/02/09 00:23:47;;;;;;;7.28;4.32;;;;;;;;;;5036408;28;20040;-63
2024/02/09 00:26:12;;;;;;;6.55;4.40;;;;;;;;;;5052210;28;20033;-64
2024/02/09 00:28:38;;;;;;;6.13;4.00;;;;;;;;;;5038161;28;20041;-63
2024/02/09 00:31:04;;;;;;;6.65;4.20;;;;;;;;;;5045501;28;20044;-64
2024/02/09 00:33:29;;;;;;;5.88;4.30;;;;;;;;;;5045986;28;20048;-62
2024/02/09 00:35:56;;;;;;;6.68;4.35;;;;;;;;;;5044428;28;20498;-63
2024/02/09 00:38:22;;;;;;;6.47;4.03;;;;;;;;;;5046546;28;20391;-59
2024/02/09 00:40:48;;;;;;;6.53;4.38;;;;;;;;;;5049237;28;20029;-65
2024/02/09 00:43:15;;;;;;;6.55;4.20;;;;;;;;;;5047840;28;20032;-65
2024/02/09 00:45:40;;;;;;;6.00;4.50;;;;;;;;;;5048714;28;20048;-64
2024/02/09 00:48:06;;;;;;;6.55;4.05;;;;;;;;;;5049923;28;20049;-61
2024/02/09 00:50:31;;;;;;;6.90;3.90;;;;;;;;;;5049769;28;20029;-63
2024/02/09 00:53:08;;;;;;;7.03;4.20;;;;;;;;;;5049017;28;20403;-62
2024/02/09 00:55:33;;;;;;;6.20;4.50;;;;;;;;;;5049396;28;20117;-66
2024/02/09 00:57:58;;;;;;;6.22;4.22;;;;;;;;;;5049020;28;20032;-65
2024/02/09 01:00:24;;;;;;;6.75;4.30;;;;;;;;;;5044926;28;20052;-64
2024/02/09 01:02:51;;;;;;;5.97;4.45;;;;;;;;;;5031492;28;20047;-64
2024/02/09 01:05:18;;;;;;;6.43;4.20;;;;;;;;;;5049236;28;20032;-63
2024/02/09 01:07:43;;;;;;;6.38;4.25;;;;;;;;;;5048954;28;20090;-62
2024/02/09 01:10:09;;;;;;;5.45;4.35;;;;;;;;;;5033163;28;20033;-65
2024/02/09 02:45:11;;;;;;;5.93;4.67;;;;;;;;;;5044015;28;20041;-64
2024/02/09 02:47:37;;;;;;;6.80;4.60;;;;;;;;;;5041073;28;20490;-64
2024/02/09 03:06:26;;;;;;;7.35;4.93;;;;;;;;;;5048949;28;20130;-62
2024/02/09 03:08:51;;;;;;;6.70;4.55;;;;;;;;;;5044331;28;20103;-65
2024/02/09 03:11:17;;;;;;;6.45;4.38;;;;;;;;;;5046523;28;20157;-64
2024/02/09 03:13:42;;;;;;;6.82;4.45;;;;;;;;;;5046836;28;20033;-63
2024/02/09 03:16:07;;;;;;;8.18;4.80;;;;;;;;;;5046122;28;20028;-64
2024/02/09 03:18:33;;;;;;;6.78;5.07;;;;;;;;;;5046663;28;20041;-61
2024/02/09 03:20:58;;;;;;;6.80;4.82;;;;;;;;;;5046381;28;20064;-64
2024/02/09 03:23:23;;;;;;;6.30;4.63;;;;;;;;;;5044601;28;20047;-63
2024/02/09 03:25:49;;;;;;;6.10;4.38;;;;;;;;;;5054261;28;20029;-64
2024/02/09 03:28:14;;;;;;;7.15;4.47;;;;;;;;;;5055159;28;20045;-65
2024/02/09 03:30:40;;;;;;;5.82;4.25;;;;;;;;;;5046640;28;20051;-62
2024/02/09 03:33:05;;;;;;;6.80;4.65;;;;;;;;;;5046084;28;20132;-60
2024/02/09 03:35:31;;;;;;;7.15;4.43;;;;;;;;;;5049340;28;20028;-64
2024/02/09 03:37:57;;;;;;;6.32;4.80;;;;;;;;;;5057139;28;20029;-65
2024/02/09 03:40:22;;;;;;;7.88;4.75;;;;;;;;;;5045077;28;20098;-65
2024/02/09 03:42:48;;;;;;;6.22;4.50;;;;;;;;;;5043351;28;20454;-63
2024/02/09 03:45:13;;;;;;;6.10;4.55;;;;;;;;;;5045884;28;20036;-64
2024/02/09 03:47:39;;;;;;;7.25;4.72;;;;;;;;;;5045642;28;20056;-65
2024/02/09 03:50:05;;;;;;;6.47;4.85;;;;;;;;;;5065544;28;20090;-64
2024/02/09 03:52:30;;;;;;;7.93;4.95;;;;;;;;;;5051974;28;20094;-66
2024/02/09 03:54:55;;;;;;;6.47;4.68;;;;;;;;;;5046064;28;20039;-66
2024/02/09 03:57:21;;;;;;;6.85;4.80;;;;;;;;;;5045725;28;20037;-66
2024/02/09 03:59:46;;;;;;;6.38;4.65;;;;;;;;;;5044526;28;20022;-65
2024/02/09 04:02:12;;;;;;;7.57;4.93;;;;;;;;;;5043696;28;20041;-65
2024/02/09 04:04:37;;;;;;;7.00;4.80;;;;;;;;;;5044778;28;20029;-63
2024/02/09 04:07:05;;;;;;;7.55;4.45;;;;;;;;;;5048777;28;20045;-64
2024/02/09 04:09:31;;;;;;;7.63;4.53;;;;;;;;;;5062097;28;20037;-63
2024/02/09 04:11:56;;;;;;;7.45;4.90;;;;;;;;;;5041548;28;20033;-60
2024/02/09 04:14:22;;;;;;;7.88;4.82;;;;;;;;;;5046619;28;20045;-58
2024/02/09 04:16:50;;;;;;;6.68;4.60;;;;;;;;;;5049645;28;20041;-60
2024/02/09 04:19:16;;;;;;;6.40;4.80;;;;;;;;;;5050574;28;20517;-61
2024/02/09 04:21:47;;;;;;;5.53;4.32;;;;;;;;;;5049554;28;20123;-64
2024/02/09 04:24:13;;;;;;;7.03;4.60;;;;;;;;;;5049498;28;20490;-64
2024/02/09 04:26:38;;;;;;;6.32;4.55;;;;;;;;;;5046405;28;20619;-63
2024/02/09 04:29:04;;;;;;;6.68;4.75;;;;;;;;;;5054609;28;20040;-63
2024/02/09 04:31:29;;;;;;;5.75;4.60;;;;;;;;;;5049414;28;20110;-63
2024/02/09 04:33:54;;;;;;;6.75;4.88;;;;;;;;;;5056103;28;20036;-64
2024/02/09 04:36:20;;;;;;;6.75;4.30;;;;;;;;;;5049522;28;20025;-61
2024/02/09 04:38:45;;;;;;;7.97;4.72;;;;;;;;;;5049237;28;20600;-60
2024/02/09 04:41:10;;;;;;;6.63;4.68;;;;;;;;;;5049310;28;20134;-63
2024/02/09 04:43:36;;;;;;;6.30;4.50;;;;;;;;;;5031062;28;20029;-65
2024/02/09 04:46:01;;;;;;;6.55;4.57;;;;;;;;;;5047645;28;20564;-59
2024/02/09 04:48:26;;;;;;;6.35;4.70;;;;;;;;;;5047740;28;20036;-64
2024/02/09 04:50:52;;;;;;;6.00;4.20;;;;;;;;;;5048822;28;20075;-65
2024/02/09 04:53:18;;;;;;;5.28;4.00;;;;;;;;;;5052688;28;20051;-63
2024/02/09 04:55:44;;;;;;;6.63;4.78;;;;;;;;;;5050923;28;20064;-63
2024/02/09 04:58:09;;;;;;;6.18;4.43;;;;;;;;;;5031201;28;20049;-64
2024/02/09 05:00:35;;;;;;;7.25;4.63;;;;;;;;;;5048715;28;20083;-63
2024/02/09 05:03:00;;;;;;;7.03;4.90;;;;;;;;;;5031279;28;20041;-63
2024/02/09 05:05:26;;;;;;;6.45;4.53;;;;;;;;;;5043302;28;20568;-65
2024/02/09 05:07:52;;;;;;;6.18;4.45;;;;;;;;;;5041104;28;20503;-58
2024/02/09 05:10:18;;;;;;;6.97;4.53;;;;;;;;;;5055912;28;20123;-58
2024/02/09 05:12:43;;;;;;;6.05;4.32;;;;;;;;;;5036612;28;20039;-60
2024/02/09 05:15:08;;;;;;;6.05;4.55;;;;;;;;;;5046755;28;20140;-60
2024/02/09 05:17:38;;;;;;;6.05;4.22;;;;;;;;;;5047583;28;20075;-59
2024/02/09 05:20:03;;;;;;;8.53;5.10;;;;;;;;;;5048201;28;20044;-59
2024/02/09 05:22:29;;;;;;;6.88;4.60;;;;;;;;;;5040340;28;20665;-59
2024/02/09 05:24:54;;;;;;;7.60;4.40;;;;;;;;;;5044269;28;20028;-62
2024/02/09 05:27:21;;;;;;;6.55;4.85;;;;;;;;;;5037125;28;20044;-64
2024/02/09 05:29:46;;;;;;;6.43;4.45;;;;;;;;;;5041544;28;20422;-63
2024/02/09 05:32:12;;;;;;;6.70;4.57;;;;;;;;;;5036644;28;20040;-60
2024/02/09 05:34:39;;;;;;;6.20;4.00;;;;;;;;;;5040049;28;20021;-60
2024/02/09 05:37:04;;;;;;;7.22;4.10;;;;;;;;;;5043508;28;20103;-61
2024/02/09 05:39:29;;;;;;;6.25;4.13;;;;;;;;;;5039201;28;20024;-60
2024/02/09 05:41:55;;;;;;;5.15;4.00;;;;;;;;;;5037196;28;20067;-59
2024/02/09 05:44:20;;;;;;;7.10;4.70;;;;;;;;;;5038279;28;20013;-59
2024/02/09 05:46:46;;;;;;;5.80;4.28;;;;;;;;;;5042223;28;20415;-61
2024/02/09 05:49:11;;;;;;;6.75;4.70;;;;;;;;;;5043427;28;20150;-59
2024/02/09 05:51:36;;;;;;;5.82;4.13;;;;;;;;;;5052530;28;20037;-59
2024/02/09 05:54:02;;;;;;;6.60;4.30;;;;;;;;;;5044503;28;20081;-60
2024/02/09 05:56:27;;;;;;;6.25;4.30;;;;;;;;;;5046485;28;20374;-65
2024/02/09 05:58:53;;;;;;;7.45;4.70;;;;;;;;;;5032249;28;20105;-60
2024/02/09 06:01:19;;;;;;;6.57;4.63;;;;;;;;;;5041046;28;20029;-62
2024/02/09 06:03:45;;;;;;;6.20;4.50;;;;;;;;;;5040108;28;20105;-60
2024/02/09 06:06:12;;;;;;;5.80;3.95;;;;;;;;;;5038079;28;20410;-62
2024/02/09 06:08:37;;;;;;;6.00;4.22;;;;;;;;;;5036009;28;20119;-63
2024/02/09 06:11:03;;;;;;;6.85;4.00;;;;;;;;;;5045685;28;20848;-63
2024/02/09 06:13:30;;;;;;;5.70;4.20;;;;;;;;;;5032322;28;20029;-63
2024/02/09 06:15:57;;;;;;;6.32;4.65;;;;;;;;;;5043475;28;20144;-61
2024/02/09 06:18:24;;;;;;;4.95;3.88;;;;;;;;;;5043696;28;20029;-62
2024/02/09 06:20:53;;;;;;;6.72;4.47;;;;;;;;;;5045518;28;20506;-63
2024/02/09 06:23:18;;;;;;;6.88;4.32;;;;;;;;;;5039331;28;20044;-62
2024/02/09 06:25:43;;;;;;;5.45;3.78;;;;;;;;;;5045291;28;20041;-61
2024/02/09 06:28:09;;;;;;;6.20;4.20;;;;;;;;;;5044954;28;20128;-60
2024/02/09 06:30:34;;;;;;;7.10;4.47;;;;;;;;;;5040252;28;20095;-63
2024/02/09 06:33:00;;;;;;;7.28;4.40;;;;;;;;;;5044049;28;20072;-64
2024/02/09 06:35:25;;;;;;;5.75;4.10;;;;;;;;;;5047108;28;20551;-65
2024/02/09 06:37:52;;;;;;;6.15;4.20;;;;;;;;;;5043912;28;20057;-61
2024/02/09 06:40:19;;;;;;;6.60;4.22;;;;;;;;;;5044940;28;20055;-61
2024/02/09 06:42:44;;;;;;;6.13;4.18;;;;;;;;;;5044751;28;20063;-61
2024/02/09 06:45:14;;;;;;;6.00;4.30;;;;;;;;;;5039157;28;20075;-61
2024/02/09 06:47:40;;;;;;;6.35;4.78;;;;;;;;;;5038995;28;20041;-58
2024/02/09 06:50:05;;;;;;;6.43;4.40;;;;;;;;;;5046140;28;20047;-59
2024/02/09 06:52:31;;;;;;;5.70;3.95;;;;;;;;;;5049506;28;20032;-60
2024/02/09 06:54:57;;;;;;;6.53;4.70;;;;;;;;;;5040018;28;20036;-60
2024/02/09 06:57:22;;;;;;;5.03;3.85;;;;;;;;;;5037838;28;20044;-60
2024/02/09 06:59:48;;;;;;;5.60;3.92;;;;;;;;;;5032904;28;20037;-61
2024/02/09 07:02:16;;;;;;;7.25;4.40;;;;;;;;;;5038453;28;20045;-61
2024/02/09 07:04:41;;;;;;;7.05;4.30;;;;;;;;;;5042020;28;20057;-64
2024/02/09 07:07:08;;;;;;;6.00;4.30;;;;;;;;;;5039174;28;20483;-63
2024/02/09 07:09:33;;;;;;;6.68;4.28;;;;;;;;;;5030638;28;20061;-65
2024/02/09 07:12:02;;;;;;;6.50;4.50;;;;;;;;;;5037532;28;20073;-62
2024/02/09 07:14:27;;;;;;;6.43;4.25;;;;;;;;;;5040277;28;20057;-63
2024/02/09 07:16:52;;;;;;;5.63;4.10;;;;;;;;;;5044592;28;20502;-67
2024/02/09 07:19:18;;;;;;;5.63;4.03;;;;;;;;;;5042440;28;20063;-67
2024/02/09 07:21:44;;;;;;;5.03;3.70;;;;;;;;;;5043989;28;20048;-64
2024/02/09 07:24:09;;;;;;;6.53;4.30;;;;;;;;;;5044861;28;20044;-60
2024/02/09 07:26:34;;;;;;;4.95;4.05;;;;;;;;;;5040241;28;20036;-59
2024/02/09 07:29:00;;;;;;;6.43;4.25;;;;;;;;;;5038488;28;20099;-61
2024/02/09 07:31:25;;;;;;;5.00;3.70;;;;;;;;;;5043728;28;20052;-60
2024/02/09 07:33:51;;;;;;;5.95;4.20;;;;;;;;;;5039545;28;20032;-61
2024/02/09 07:36:16;;;;;;;6.60;4.18;;;;;;;;;;5044910;28;20363;-61
2024/02/09 07:38:42;;;;;;;5.18;4.15;;;;;;;;;;5044590;28;20488;-62
2024/02/09 07:41:10;;;;;;;5.60;4.10;;;;;;;;;;5038609;28;20563;-59
2024/02/09 07:43:36;;;;;;;5.30;4.10;;;;;;;;;;5043285;28;20043;-57
2024/02/09 07:46:01;;;;;;;7.03;4.00;;;;;;;;;;5051475;28;20025;-60
2024/02/09 07:48:28;;;;;;;6.30;3.95;;;;;;;;;;5044672;28;20040;-61
2024/02/09 07:50:53;;;;;;;9.15;4.38;;;;;;;;;;5047179;28;20075;-59
2024/02/09 07:53:19;;;;;;;6.60;3.83;;;;;;;;;;5048670;28;20041;-62
2024/02/09 07:55:44;;;;;;;6.22;3.90;;;;;;;;;;5048754;28;20032;-59
2024/02/09 07:58:10;;;;;;;6.15;3.97;;;;;;;;;;5038603;28;20112;-58
2024/02/09 08:00:35;;;;;;;6.43;4.25;;;;;;;;;;5053267;28;20611;-65
2024/02/09 08:03:01;;;;;;;7.00;4.47;;;;;;;;;;5047311;28;20025;-61
2024/02/09 08:05:26;;;;;;;5.32;3.92;;;;;;;;;;5046395;28;20029;-63
2024/02/09 08:07:52;;;;;;;5.68;4.20;;;;;;;;;;5042039;28;20042;-64
2024/02/09 08:10:17;;;;;;;4.78;3.78;;;;;;;;;;5043785;28;20029;-62
2024/02/09 08:12:43;;;;;;;6.32;4.55;;;;;;;;;;5040631;28;20034;-64
2024/02/09 08:15:11;;;;;;;5.50;3.67;;;;;;;;;;5047684;28;20498;-62
2024/02/09 08:17:40;;;;;;;6.43;4.10;;;;;;;;;;5039555;28;20051;-63
2024/02/09 08:20:06;;;;;;;5.97;4.10;;;;;;;;;;5047371;28;20029;-62
2024/02/09 08:22:32;;;;;;;5.05;3.90;;;;;;;;;;5047327;28;20036;-61
2024/02/09 08:25:00;;;;;;;6.15;4.22;;;;;;;;;;5045249;28;20059;-65
2024/02/09 08:27:26;;;;;;;7.25;3.92;;;;;;;;;;5057383;28;20048;-63
2024/02/09 08:29:55;;;;;;;6.47;4.20;;;;;;;;;;5050366;28;20041;-63
2024/02/09 08:32:23;;;;;;;5.13;3.83;;;;;;;;;;5045658;28;20444;-62
2024/02/09 08:34:50;;;;;;;6.55;4.07;;;;;;;;;;5053837;28;20064;-61
2024/02/09 08:37:16;;;;;;;6.35;3.78;;;;;;;;;;5044398;28;20082;-60
2024/02/09 08:39:45;;;;;;;5.30;4.05;;;;;;;;;;5047810;28;20075;-63
2024/02/09 08:42:10;;;;;;;6.88;4.43;;;;;;;;;;5047919;28;20558;-63
2024/02/09 08:44:37;;;;;;;5.60;4.00;;;;;;;;;;5047456;28;20116;-61
2024/02/09 08:47:03;;;;;;;5.20;3.72;;;;;;;;;;5044178;28;20077;-62
2024/02/09 08:49:28;;;;;;;6.45;4.32;;;;;;;;;;5030007;28;20068;-62
2024/02/09 08:51:54;;;;;;;6.00;4.05;;;;;;;;;;5048874;28;20079;-62
2024/02/09 08:54:19;;;;;;;5.28;3.63;;;;;;;;;;5048713;28;20495;-60
2024/02/09 08:56:44;;;;;;;5.25;3.75;;;;;;;;;;5047543;28;20081;-62
2024/02/09 08:59:10;;;;;;;5.45;3.45;;;;;;;;;;5049139;28;20064;-63
2024/02/09 09:01:35;;;;;;;5.97;3.88;;;;;;;;;;5045878;28;20041;-61
2024/02/09 09:04:01;;;;;;;5.32;3.63;;;;;;;;;;5048902;28;20123;-62
2024/02/09 09:06:27;;;;;;;5.65;3.63;;;;;;;;;;5049004;28;20033;-61
2024/02/09 09:08:54;;;;;;;5.18;3.80;;;;;;;;;;5027722;28;20384;-61
2024/02/09 09:11:20;;;;;;;5.03;3.70;;;;;;;;;;5049106;28;20446;-62
2024/02/09 09:13:46;;;;;;;6.20;4.10;;;;;;;;;;5049060;28;20048;-61
2024/02/09 09:16:11;;;;;;;5.45;3.72;;;;;;;;;;5048974;28;21568;-61
2024/02/09 09:18:37;;;;;;;4.60;3.60;;;;;;;;;;5032203;28;20089;-62
2024/02/09 09:21:02;;;;;;;5.75;3.90;;;;;;;;;;5048017;28;20080;-61
2024/02/09 09:23:28;;;;;;;4.53;3.38;;;;;;;;;;5048173;28;20202;-63
2024/02/09 09:25:54;;;;;;;6.78;4.03;;;;;;;;;;5048157;28;20414;-64
2024/02/09 09:28:19;;;;;;;5.05;3.75;;;;;;;;;;5048199;28;20041;-62
2024/02/09 09:30:45;;;;;;;4.72;3.70;;;;;;;;;;5048223;28;20032;-64
2024/02/09 09:33:10;;;;;;;5.80;3.70;;;;;;;;;;5048376;28;20378;-65
2024/02/09 09:35:36;;;;;;;4.95;3.78;;;;;;;;;;5048217;28;20482;-64
2024/02/09 09:38:01;;;;;;;5.40;3.50;;;;;;;;;;5048560;28;20395;-66
2024/02/09 09:40:29;;;;;;;5.07;3.90;;;;;;;;;;5047734;28;20033;-65
2024/02/09 09:42:54;;;;;;;5.70;3.97;;;;;;;;;;5047314;28;20032;-61
2024/02/09 09:45:20;;;;;;;4.28;3.50;;;;;;;;;;5046624;28;20033;-61
2024/02/09 09:47:45;;;;;;;4.93;3.63;;;;;;;;;;5048214;28;20506;-62
2024/02/09 09:50:11;;;;;;;5.38;3.70;;;;;;;;;;5030882;28;20060;-62
2024/02/09 09:52:36;;;;;;;5.07;3.38;;;;;;;;;;5047921;28;20498;-61
2024/02/09 09:55:01;;;;;;;4.43;3.60;;;;;;;;;;5046282;28;20491;-61
2024/02/09 09:57:26;;;;;;;5.40;3.60;;;;;;;;;;5047724;28;20491;-58
2024/02/09 09:59:52;;;;;;;5.95;3.72;;;;;;;;;;5037600;28;20033;-63
2024/02/09 10:02:18;;;;;;;4.57;3.42;;;;;;;;;;5041077;28;20041;-68
2024/02/09 10:04:43;;;;;;;4.28;3.20;;;;;;;;;;5048683;28;20797;-60
2024/02/09 10:07:09;;;;;;;4.97;3.63;;;;;;;;;;5044752;28;20069;-65
2024/02/09 10:09:34;;;;;;;5.07;3.58;;;;;;;;;;5046203;28;20067;-61
2024/02/09 10:12:00;;;;;;;6.20;3.55;;;;;;;;;;5043766;28;20484;-70
2024/02/09 10:14:26;;;;;;;6.15;3.80;;;;;;;;;;5018853;28;20038;-67
2024/02/09 10:16:51;;;;;;;5.45;3.55;;;;;;;;;;5041915;28;20124;-60
2024/02/09 10:19:17;;;;;;;5.47;3.47;;;;;;;;;;5046600;28;20411;-58
2024/02/09 10:21:42;;;;;;;5.55;3.53;;;;;;;;;;5045708;28;20029;-61
2024/02/09 10:24:10;;;;;;;5.43;3.50;;;;;;;;;;5045903;28;20047;-57
2024/02/09 10:26:36;;;;;;;4.95;3.67;;;;;;;;;;5044994;28;20119;-60
2024/02/09 10:29:01;;;;;;;5.05;3.42;;;;;;;;;;5041774;28;20064;-58
2024/02/09 10:31:30;;;;;;;4.35;2.92;;;;;;;;;;5046131;28;20032;-69
2024/02/09 10:33:56;;;;;;;5.28;3.10;;;;;;;;;;5043145;28;20037;-59
2024/02/09 10:36:24;;;;;;;4.20;2.97;;;;;;;;;;5042585;28;20040;-58
2024/02/09 10:38:50;;;;;;;4.80;3.20;;;;;;;;;;5036166;28;20044;-59
2024/02/09 10:41:16;;;;;;;4.65;3.10;;;;;;;;;;5032252;28;20055;-60
2024/02/09 10:43:41;;;;;;;5.82;3.20;;;;;;;;;;5044121;28;20082;-61
2024/02/09 10:46:07;;;;;;;5.78;3.30;;;;;;;;;;5044894;28;20029;-64
2024/02/09 10:48:37;;;;;;;3.50;2.80;;;;;;;;;;5026776;28;20063;-61
2024/02/09 10:51:05;;;;;;;5.75;3.15;;;;;;;;;;5045132;28;20021;-57
2024/02/09 10:53:30;;;;;;;5.57;3.30;;;;;;;;;;5027310;28;20402;-58
2024/02/09 10:56:03;;;;;;;6.40;3.10;;;;;;;;;;5043348;28;20013;-59
2024/02/09 10:58:35;;;;;;;4.22;2.88;;;;;;;;;;5042063;28;20048;-58
2024/02/09 11:01:01;;;;;;;4.32;3.05;;;;;;;;;;5043771;28;20133;-59
2024/02/09 11:03:26;;;;;;;4.60;3.05;;;;;;;;;;5041234;28;20405;-62
2024/02/09 11:05:51;;;;;;;4.30;2.88;;;;;;;;;;5047523;28;20119;-61
2024/02/09 11:08:17;;;;;;;3.90;3.00;;;;;;;;;;5044325;28;20078;-61
2024/02/09 11:10:42;;;;;;;5.35;3.10;;;;;;;;;;5043862;28;20418;-62
2024/02/09 11:13:07;;;;;;;4.75;3.10;;;;;;;;;;5040261;28;20036;-59
2024/02/09 11:15:33;;;;;;;4.28;3.00;;;;;;;;;;5044280;28;20036;-59
2024/02/09 11:17:58;;;;;;;5.05;3.13;;;;;;;;;;5044770;28;20063;-63
2024/02/09 11:20:24;;;;;;;4.05;2.60;;;;;;;;;;5044536;28;20526;-59
2024/02/09 11:22:49;;;;;;;5.75;3.17;;;;;;;;;;5042165;28;20132;-67
2024/02/09 11:25:16;;;;;;;3.63;2.83;;;;;;;;;;5040750;28;20044;-67
2024/02/09 11:27:51;;;;;;;4.97;2.90;;;;;;;;;;5040392;28;20033;-59
2024/02/09 11:30:17;;;;;;;3.83;2.63;;;;;;;;;;5044686;28;20029;-62
2024/02/09 11:32:44;;;;;;;4.03;2.80;;;;;;;;;;5044993;28;20122;-66
2024/02/09 11:35:10;;;;;;;4.13;3.05;;;;;;;;;;5044041;28;20049;-63
2024/02/09 11:37:36;;;;;;;4.45;2.80;;;;;;;;;;5043097;28;20055;-61
2024/02/09 11:40:01;;;;;;;3.90;2.80;;;;;;;;;;5045217;28;20033;-65
2024/02/09 11:42:28;;;;;;;3.65;2.80;;;;;;;;;;5044705;28;20120;-60
2024/02/09 11:44:53;;;;;;;3.75;2.92;;;;;;;;;;5022630;28;20025;-68
2024/02/09 11:47:18;;;;;;;3.67;2.60;;;;;;;;;;5026522;28;20098;-63
2024/02/09 11:49:46;;;;;;;4.35;3.00;;;;;;;;;;5027337;28;20388;-64
2024/02/09 11:52:12;;;;;;;3.17;2.58;;;;;;;;;;5043976;28;20037;-61
2024/02/09 11:54:37;;;;;;;4.18;2.85;;;;;;;;;;5044970;28;20047;-68
2024/02/09 11:57:02;;;;;;;3.58;2.53;;;;;;;;;;5040897;28;20407;-71
2024/02/09 11:59:28;;;;;;;4.15;2.75;;;;;;;;;;5033196;28;20141;-68
2024/02/09 12:01:54;;;;;;;4.97;2.95;;;;;;;;;;5040303;28;20502;-66
2024/02/09 12:04:20;;;;;;;4.68;2.63;;;;;;;;;;5043037;28;20031;-69
2024/02/09 12:06:46;;;;;;;4.03;2.53;;;;;;;;;;5025319;28;20406;-68
2024/02/09 12:09:13;;;;;;;4.70;2.70;;;;;;;;;;5042982;28;20044;-68
2024/02/09 12:11:38;;;;;;;5.05;2.90;;;;;;;;;;5044573;28;20033;-68
2024/02/09 12:14:04;;;;;;;4.35;2.70;;;;;;;;;;5043402;28;20060;-69
2024/02/09 12:16:29;;;;;;;4.25;2.70;;;;;;;;;;5041896;28;20503;-66
2024/02/09 12:18:55;;;;;;;3.58;2.67;;;;;;;;;;5042763;28;20407;-69
2024/02/09 12:21:20;;;;;;;3.47;2.55;;;;;;;;;;5041209;28;20070;-68
2024/02/09 12:23:45;;;;;;;3.72;2.63;;;;;;;;;;5041827;28;20036;-68
2024/02/09 12:26:12;;;;;;;3.67;2.40;;;;;;;;;;5041306;28;20047;-65
2024/02/09 12:28:38;;;;;;;4.00;3.05;;;;;;;;;;5038326;28;20498;-66
2024/02/09 12:31:04;;;;;;;3.90;2.90;;;;;;;;;;5041184;28;20043;-64
2024/02/09 12:33:29;;;;;;;5.30;3.20;;;;;;;;;;5040680;28;20249;-66
2024/02/09 12:35:55;;;;;;;3.85;2.65;;;;;;;;;;5043356;28;20133;-63
2024/02/09 12:38:20;;;;;;;3.50;2.63;;;;;;;;;;5029396;28;20037;-64
2024/02/09 12:40:45;;;;;;;3.95;2.75;;;;;;;;;;5045523;28;20048;-68
2024/02/09 12:43:17;;;;;;;4.82;3.03;;;;;;;;;;5039829;28;20458;-64
2024/02/09 12:45:42;;;;;;;4.32;2.78;;;;;;;;;;5047209;28;20510;-65
2024/02/09 12:48:07;;;;;;;3.58;2.58;;;;;;;;;;5049259;28;20141;-63
2024/02/09 12:50:33;;;;;;;3.85;2.97;;;;;;;;;;5046855;28;20033;-68
2024/02/09 12:52:59;;;;;;;4.40;2.70;;;;;;;;;;5018338;28;20041;-67
2024/02/09 12:55:25;;;;;;;4.10;2.53;;;;;;;;;;5046723;28;20040;-69
2024/02/09 12:57:51;;;;;;;3.53;2.60;;;;;;;;;;5046851;28;20890;-69
2024/02/09 13:00:16;;;;;;;4.50;2.70;;;;;;;;;;5046513;28;20041;-67
2024/02/09 13:02:42;;;;;;;4.55;2.63;;;;;;;;;;5035148;28;20415;-62
2024/02/09 13:05:08;;;;;;;3.75;2.72;;;;;;;;;;5045985;28;20033;-65
2024/02/09 13:07:34;;;;;;;4.35;2.90;;;;;;;;;;5043832;28;20053;-61
2024/02/09 13:10:00;;;;;;;3.88;2.63;;;;;;;;;;5047779;28;20040;-63
2024/02/09 13:12:25;;;;;;;3.55;2.40;;;;;;;;;;5047319;28;20480;-68
2024/02/09 13:14:50;;;;;;;3.38;2.38;;;;;;;;;;5043996;28;20091;-66
2024/02/09 13:17:16;;;;;;;3.60;2.55;;;;;;;;;;5039581;28;20056;-64
2024/02/09 13:19:41;;;;;;;3.70;2.60;;;;;;;;;;5042132;28;20048;-66
2024/02/09 13:22:08;;;;;;;4.20;2.67;;;;;;;;;;5046311;28;20041;-66
2024/02/09 13:24:39;;;;;;;4.90;2.80;;;;;;;;;;5037954;28;20037;-62
2024/02/09 13:27:12;;;;;;;3.65;2.60;;;;;;;;;;5040362;28;20104;-65
2024/02/09 13:29:37;;;;;;;3.70;2.40;;;;;;;;;;5043521;28;20411;-66
2024/02/09 13:32:03;;;;;;;3.30;2.10;;;;;;;;;;5035025;28;20038;-64
2024/02/09 13:34:28;;;;;;;5.22;2.65;;;;;;;;;;5046965;28;20091;-67
2024/02/09 13:36:53;;;;;;;4.13;2.70;;;;;;;;;;5028647;28;20037;-65
2024/02/09 13:39:18;;;;;;;3.50;2.22;;;;;;;;;;5045579;28;20158;-63
2024/02/09 13:41:44;;;;;;;3.38;2.25;;;;;;;;;;5043361;28;20033;-65
2024/02/09 13:44:09;;;;;;;3.20;2.42;;;;;;;;;;5045833;28;20041;-64
2024/02/09 13:46:35;;;;;;;3.88;2.63;;;;;;;;;;5045118;28;20055;-61
2024/02/09 13:49:00;;;;;;;5.60;2.80;;;;;;;;;;5045114;28;20048;-62
2024/02/09 13:51:29;;;;;;;3.53;2.33;;;;;;;;;;5049643;28;20061;-61
2024/02/09 13:53:55;;;;;;;3.38;2.35;;;;;;;;;;5055377;28;20539;-60
2024/02/09 13:56:20;;;;;;;3.75;2.30;;;;;;;;;;5043397;28;20112;-67
2024/02/09 13:58:46;;;;;;;3.13;2.10;;;;;;;;;;5044719;28;20029;-63
2024/02/09 14:01:12;;;;;;;3.17;2.35;;;;;;;;;;5041227;28;20040;-63
2024/02/09 14:03:38;;;;;;;3.72;2.40;;;;;;;;;;5050055;28;20032;-64
2024/02/09 14:06:03;;;;;;;3.67;2.50;;;;;;;;;;5049479;28;20033;-62
2024/02/09 14:08:28;;;;;;;3.60;2.25;;;;;;;;;;5045033;28;20462;-63
2024/02/09 14:10:54;;;;;;;3.58;2.47;;;;;;;;;;5044319;28;20037;-63
2024/02/09 14:13:19;;;;;;;3.08;2.10;;;;;;;;;;5044549;28;20033;-62
2024/02/09 14:15:49;;;;;;;3.17;2.25;;;;;;;;;;5044864;28;20064;-61
2024/02/09 14:18:14;;;;;;;4.85;2.45;;;;;;;;;;5052581;28;20541;-62
2024/02/09 14:20:40;;;;;;;2.97;2.20;;;;;;;;;;5050949;28;20033;-62
2024/02/09 14:23:06;;;;;;;3.55;2.40;;;;;;;;;;5044742;28;20494;-64
2024/02/09 14:25:31;;;;;;;3.40;2.17;;;;;;;;;;5045150;28;20062;-64
2024/02/09 14:27:57;;;;;;;4.25;2.42;;;;;;;;;;5045444;28;20056;-63
2024/02/09 14:30:22;;;;;;;3.15;2.33;;;;;;;;;;5045288;28;20029;-63
2024/02/09 14:32:47;;;;;;;3.85;2.72;;;;;;;;;;5044203;28;20142;-64
2024/02/09 14:35:13;;;;;;;3.33;2.40;;;;;;;;;;5046473;28;20032;-63
2024/02/09 14:37:38;;;;;;;3.80;2.35;;;;;;;;;;5046906;28;20041;-64
2024/02/09 14:40:04;;;;;;;3.63;2.42;;;;;;;;;;5046400;28;20075;-62
2024/02/09 14:42:29;;;;;;;3.83;2.40;;;;;;;;;;5046423;28;20149;-65
2024/02/09 14:44:54;;;;;;;2.75;2.10;;;;;;;;;;5045298;28;20037;-64
2024/02/09 14:47:20;;;;;;;3.15;2.25;;;;;;;;;;5042710;28;20116;-65
2024/02/09 14:49:46;;;;;;;3.30;2.30;;;;;;;;;;5045234;28;20033;-66
2024/02/09 14:52:12;;;;;;;3.75;2.72;;;;;;;;;;5045390;28;20044;-65
2024/02/09 14:54:40;;;;;;;3.28;2.22;;;;;;;;;;5045606;28;20419;-65
2024/02/09 14:57:05;;;;;;;3.65;2.40;;;;;;;;;;5043980;28;20041;-65
2024/02/09 14:59:31;;;;;;;4.07;2.40;;;;;;;;;;5045497;28;20032;-66
2024/02/09 15:01:56;;;;;;;4.75;2.30;;;;;;;;;;5041744;28;20128;-64
2024/02/09 15:04:23;;;;;;;3.88;2.30;;;;;;;;;;5031179;28;20057;-66
2024/02/09 15:06:49;;;;;;;5.15;2.53;;;;;;;;;;5042619;28;20044;-59
2024/02/09 15:09:15;;;;;;;3.83;2.53;;;;;;;;;;5049073;28;20063;-63
2024/02/09 15:11:40;;;;;;;3.42;2.03;;;;;;;;;;5043766;28;20056;-63
2024/02/09 15:14:06;;;;;;;4.32;2.40;;;;;;;;;;5045089;28;20033;-61
2024/02/09 15:16:32;;;;;;;4.05;2.22;;;;;;;;;;5044664;28;20040;-64
2024/02/09 15:18:58;;;;;;;4.47;2.60;;;;;;;;;;5042916;28;20033;-63
2024/02/09 15:21:23;;;;;;;2.95;2.15;;;;;;;;;;5049413;28;20032;-67
2024/02/09 15:23:48;;;;;;;4.75;2.50;;;;;;;;;;5047707;28;20048;-64
2024/02/09 15:26:15;;;;;;;3.17;2.28;;;;;;;;;;5044964;28;20039;-64
2024/02/09 15:28:40;;;;;;;3.00;2.13;;;;;;;;;;5043088;28;20045;-63
2024/02/09 15:31:08;;;;;;;3.05;2.30;;;;;;;;;;5043123;28;20062;-62
2024/02/09 15:33:34;;;;;;;3.67;2.40;;;;;;;;;;5045653;28;20063;-62
2024/02/09 15:36:01;;;;;;;3.63;2.50;;;;;;;;;;5044719;28;20037;-60
2024/02/09 15:38:27;;;;;;;4.32;2.45;;;;;;;;;;5027995;28;20032;-60
2024/02/09 15:40:53;;;;;;;4.15;2.22;;;;;;;;;;5044510;28;20380;-61
2024/02/09 15:43:19;;;;;;;3.67;2.30;;;;;;;;;;5046704;28;20098;-61
2024/02/09 15:45:44;;;;;;;3.22;2.10;;;;;;;;;;5045255;28;20103;-62
2024/02/09 15:48:10;;;;;;;3.08;2.10;;;;;;;;;;5045028;28;20111;-61
2024/02/09 15:50:38;;;;;;;3.55;2.08;;;;;;;;;;5042853;28;20045;-63
2024/02/09 15:53:03;;;;;;;4.10;2.20;;;;;;;;;;5044720;28;20032;-60
2024/02/09 15:55:31;;;;;;;3.60;2.20;;;;;;;;;;5045745;28;20025;-63
2024/02/09 15:57:56;;;;;;;3.53;2.10;;;;;;;;;;5045595;28;20013;-65
2024/02/09 16:00:22;;;;;;;3.08;2.10;;;;;;;;;;5041019;28;20509;-62
2024/02/09 16:02:48;;;;;;;3.58;2.10;;;;;;;;;;5046023;28;20021;-60
2024/02/09 16:05:14;;;;;;;4.70;2.00;;;;;;;;;;5045861;28;20078;-65
2024/02/09 16:07:40;;;;;;;3.80;2.00;;;;;;;;;;5045229;28;20056;-64
2024/02/09 16:10:06;;;;;;;4.03;1.95;;;;;;;;;;5046045;28;20021;-60
2024/02/09 16:12:31;;;;;;;3.53;2.10;;;;;;;;;;5050718;28;20028;-65
2024/02/09 16:14:57;;;;;;;2.65;1.80;;;;;;;;;;5049828;28;20027;-61
2024/02/09 16:17:25;;;;;;;5.40;2.42;;;;;;;;;;5048719;28;20017;-64
2024/02/09 16:19:50;;;;;;;4.93;2.22;;;;;;;;;;5044668;28;20027;-58
2024/02/09 16:22:16;;;;;;;4.20;2.30;;;;;;;;;;5050010;28;20100;-61
2024/02/09 16:24:43;;;;;;;2.90;2.15;;;;;;;;;;5048026;28;20075;-58